sensor_id;sensor_type;location;lat;lon;timestamp;P1;durP1;ratioP1;P2;durP2;ratioP2
11835;SDS011;5977;51.972;7.640;2023-12-07T00:00:53;144.10;;;46.77;;
11835;SDS011;5977;51.972;7.640;2023-12-07T00:03:23;144.63;;;46.93;;
11835;SDS011;5977;51.972;7.640;2023-12-07T00:05:51;144.30;;;46.80;;
11835;SDS011;5977;51.972;7.640;2023-12-07T00:08:19;144.73;;;46.87;;
11835;SDS011;5977;51.972;7.640;2023-12-07T00:10:47;144.27;;;46.87;;
11835;SDS011;5977;51.972;7.640;2023-12-07T00:13:15;144.90;;;47.03;;
11835;SDS011;5977;51.972;7.640;2023-12-07T00:15:43;144.30;;;46.93;;
11835;SDS011;5977;51.972;7.640;2023-12-07T00:18:11;144.63;;;46.93;;
11835;SDS011;5977;51.972;7.640;2023-12-07T00:20:40;144.50;;;47.00;;
11835;SDS011;5977;51.972;7.640;2023-12-07T00:23:08;144.97;;;47.07;;
11835;SDS011;5977;51.972;7.640;2023-12-07T00:25:36;144.23;;;46.70;;
11835;SDS011;5977;51.972;7.640;2023-12-07T00:28:04;144.43;;;46.93;;
11835;SDS011;5977;51.972;7.640;2023-12-07T00:30:32;144.60;;;46.97;;
11835;SDS011;5977;51.972;7.640;2023-12-07T00:33:01;144.43;;;46.90;;
11835;SDS011;5977;51.972;7.640;2023-12-07T00:35:29;144.10;;;46.80;;
11835;SDS011;5977;51.972;7.640;2023-12-07T00:37:58;144.33;;;46.80;;
11835;SDS011;5977;51.972;7.640;2023-12-07T00:40:27;144.20;;;46.87;;
11835;SDS011;5977;51.972;7.640;2023-12-07T00:42:55;144.80;;;47.17;;
11835;SDS011;5977;51.972;7.640;2023-12-07T00:45:22;143.73;;;46.60;;
11835;SDS011;5977;51.972;7.640;2023-12-07T00:47:50;144.20;;;46.93;;
11835;SDS011;5977;51.972;7.640;2023-12-07T00:50:18;144.23;;;46.80;;
11835;SDS011;5977;51.972;7.640;2023-12-07T00:52:46;143.73;;;46.60;;
11835;SDS011;5977;51.972;7.640;2023-12-07T00:55:15;143.63;;;46.63;;
11835;SDS011;5977;51.972;7.640;2023-12-07T00:57:43;143.50;;;46.60;;
11835;SDS011;5977;51.972;7.640;2023-12-07T01:00:11;144.00;;;46.70;;
11835;SDS011;5977;51.972;7.640;2023-12-07T01:02:40;143.43;;;46.53;;
11835;SDS011;5977;51.972;7.640;2023-12-07T01:05:07;143.10;;;46.47;;
11835;SDS011;5977;51.972;7.640;2023-12-07T01:07:36;143.63;;;46.70;;
11835;SDS011;5977;51.972;7.640;2023-12-07T01:10:04;143.07;;;46.47;;
11835;SDS011;5977;51.972;7.640;2023-12-07T01:12:34;143.60;;;46.63;;
11835;SDS011;5977;51.972;7.640;2023-12-07T01:15:03;143.57;;;46.67;;
11835;SDS011;5977;51.972;7.640;2023-12-07T01:17:31;143.80;;;46.80;;
11835;SDS011;5977;51.972;7.640;2023-12-07T01:19:59;143.87;;;46.87;;
11835;SDS011;5977;51.972;7.640;2023-12-07T01:22:30;143.43;;;46.60;;
11835;SDS011;5977;51.972;7.640;2023-12-07T01:24:57;143.60;;;46.73;;
11835;SDS011;5977;51.972;7.640;2023-12-07T01:27:26;143.00;;;46.37;;
11835;SDS011;5977;51.972;7.640;2023-12-07T01:29:55;143.70;;;46.60;;
11835;SDS011;5977;51.972;7.640;2023-12-07T01:32:23;143.03;;;46.53;;
11835;SDS011;5977;51.972;7.640;2023-12-07T01:34:51;143.40;;;46.67;;
11835;SDS011;5977;51.972;7.640;2023-12-07T01:37:19;144.07;;;46.87;;
11835;SDS011;5977;51.972;7.640;2023-12-07T01:39:47;143.47;;;46.63;;
11835;SDS011;5977;51.972;7.640;2023-12-07T01:42:15;143.73;;;46.80;;
11835;SDS011;5977;51.972;7.640;2023-12-07T01:44:43;143.17;;;46.57;;
11835;SDS011;5977;51.972;7.640;2023-12-07T01:47:12;143.10;;;46.43;;
11835;SDS011;5977;51.972;7.640;2023-12-07T01:49:40;143.77;;;46.80;;
11835;SDS011;5977;51.972;7.640;2023-12-07T01:52:09;143.43;;;46.67;;
11835;SDS011;5977;51.972;7.640;2023-12-07T01:54:38;143.60;;;46.60;;
11835;SDS011;5977;51.972;7.640;2023-12-07T01:57:06;143.27;;;46.70;;
11835;SDS011;5977;51.972;7.640;2023-12-07T01:59:34;143.33;;;46.60;;
11835;SDS011;5977;51.972;7.640;2023-12-07T02:02:03;143.00;;;46.47;;
11835;SDS011;5977;51.972;7.640;2023-12-07T02:04:32;143.40;;;46.63;;
11835;SDS011;5977;51.972;7.640;2023-12-07T02:07:01;143.07;;;46.57;;
11835;SDS011;5977;51.972;7.640;2023-12-07T02:09:30;143.03;;;46.40;;
11835;SDS011;5977;51.972;7.640;2023-12-07T02:11:58;143.40;;;46.60;;
11835;SDS011;5977;51.972;7.640;2023-12-07T02:14:26;143.83;;;46.87;;
11835;SDS011;5977;51.972;7.640;2023-12-07T02:16:55;143.67;;;46.70;;
11835;SDS011;5977;51.972;7.640;2023-12-07T02:19:41;143.50;;;46.53;;
11835;SDS011;5977;51.972;7.640;2023-12-07T02:22:18;143.10;;;46.63;;
11835;SDS011;5977;51.972;7.640;2023-12-07T02:24:54;142.77;;;46.50;;
11835;SDS011;5977;51.972;7.640;2023-12-07T02:27:34;142.53;;;46.37;;
11835;SDS011;5977;51.972;7.640;2023-12-07T02:30:03;143.07;;;46.60;;
11835;SDS011;5977;51.972;7.640;2023-12-07T02:32:32;143.00;;;46.57;;
11835;SDS011;5977;51.972;7.640;2023-12-07T02:35:01;142.37;;;46.27;;
11835;SDS011;5977;51.972;7.640;2023-12-07T02:37:31;143.63;;;46.80;;
11835;SDS011;5977;51.972;7.640;2023-12-07T02:40:05;143.00;;;46.47;;
11835;SDS011;5977;51.972;7.640;2023-12-07T02:42:38;143.50;;;46.60;;
11835;SDS011;5977;51.972;7.640;2023-12-07T02:45:07;142.83;;;46.40;;
11835;SDS011;5977;51.972;7.640;2023-12-07T02:47:36;143.37;;;46.67;;
11835;SDS011;5977;51.972;7.640;2023-12-07T02:50:05;143.50;;;46.73;;
11835;SDS011;5977;51.972;7.640;2023-12-07T02:52:34;143.33;;;46.73;;
11835;SDS011;5977;51.972;7.640;2023-12-07T02:55:03;143.27;;;46.63;;
11835;SDS011;5977;51.972;7.640;2023-12-07T02:57:31;142.93;;;46.47;;
11835;SDS011;5977;51.972;7.640;2023-12-07T03:00:01;143.43;;;46.63;;
11835;SDS011;5977;51.972;7.640;2023-12-07T03:02:32;143.13;;;46.43;;
11835;SDS011;5977;51.972;7.640;2023-12-07T03:05:01;143.53;;;46.67;;
11835;SDS011;5977;51.972;7.640;2023-12-07T03:07:29;143.50;;;46.87;;
11835;SDS011;5977;51.972;7.640;2023-12-07T03:09:57;143.63;;;46.67;;
11835;SDS011;5977;51.972;7.640;2023-12-07T03:12:25;143.20;;;46.53;;
11835;SDS011;5977;51.972;7.640;2023-12-07T03:14:53;144.13;;;46.93;;
11835;SDS011;5977;51.972;7.640;2023-12-07T03:17:22;143.63;;;46.80;;
11835;SDS011;5977;51.972;7.640;2023-12-07T03:19:50;143.37;;;46.67;;
11835;SDS011;5977;51.972;7.640;2023-12-07T03:22:18;143.93;;;46.73;;
11835;SDS011;5977;51.972;7.640;2023-12-07T03:24:48;143.00;;;46.50;;
11835;SDS011;5977;51.972;7.640;2023-12-07T03:27:17;143.30;;;46.63;;
11835;SDS011;5977;51.972;7.640;2023-12-07T03:29:46;143.07;;;46.43;;
11835;SDS011;5977;51.972;7.640;2023-12-07T03:32:13;142.93;;;46.50;;
11835;SDS011;5977;51.972;7.640;2023-12-07T03:34:42;142.83;;;46.37;;
11835;SDS011;5977;51.972;7.640;2023-12-07T03:37:10;143.13;;;46.60;;
11835;SDS011;5977;51.972;7.640;2023-12-07T03:39:37;142.70;;;46.47;;
11835;SDS011;5977;51.972;7.640;2023-12-07T03:42:06;142.73;;;46.47;;
11835;SDS011;5977;51.972;7.640;2023-12-07T03:44:55;142.03;;;46.20;;
11835;SDS011;5977;51.972;7.640;2023-12-07T03:47:23;143.10;;;46.70;;
11835;SDS011;5977;51.972;7.640;2023-12-07T03:49:52;142.70;;;46.43;;
11835;SDS011;5977;51.972;7.640;2023-12-07T03:52:20;142.67;;;46.47;;
11835;SDS011;5977;51.972;7.640;2023-12-07T03:54:48;142.60;;;46.33;;
11835;SDS011;5977;51.972;7.640;2023-12-07T03:57:16;143.17;;;46.70;;
11835;SDS011;5977;51.972;7.640;2023-12-07T03:59:44;143.17;;;46.83;;
11835;SDS011;5977;51.972;7.640;2023-12-07T04:02:13;142.90;;;46.67;;
11835;SDS011;5977;51.972;7.640;2023-12-07T04:04:40;142.70;;;46.60;;
11835;SDS011;5977;51.972;7.640;2023-12-07T04:07:10;142.93;;;46.70;;
11835;SDS011;5977;51.972;7.640;2023-12-07T04:09:38;142.70;;;46.53;;
11835;SDS011;5977;51.972;7.640;2023-12-07T04:12:06;142.10;;;46.23;;
11835;SDS011;5977;51.972;7.640;2023-12-07T04:14:34;143.00;;;46.70;;
11835;SDS011;5977;51.972;7.640;2023-12-07T04:17:02;142.23;;;46.23;;
11835;SDS011;5977;51.972;7.640;2023-12-07T04:19:30;142.27;;;46.47;;
11835;SDS011;5977;51.972;7.640;2023-12-07T04:21:58;142.03;;;46.37;;
11835;SDS011;5977;51.972;7.640;2023-12-07T04:24:27;142.63;;;46.43;;
11835;SDS011;5977;51.972;7.640;2023-12-07T04:26:55;142.80;;;46.57;;
11835;SDS011;5977;51.972;7.640;2023-12-07T04:29:23;142.80;;;46.63;;
11835;SDS011;5977;51.972;7.640;2023-12-07T04:31:51;142.43;;;46.40;;
11835;SDS011;5977;51.972;7.640;2023-12-07T04:34:18;142.77;;;46.47;;
11835;SDS011;5977;51.972;7.640;2023-12-07T04:36:46;142.60;;;46.50;;
11835;SDS011;5977;51.972;7.640;2023-12-07T04:39:14;143.23;;;46.70;;
11835;SDS011;5977;51.972;7.640;2023-12-07T04:41:43;142.33;;;46.40;;
11835;SDS011;5977;51.972;7.640;2023-12-07T04:44:11;142.83;;;46.50;;
11835;SDS011;5977;51.972;7.640;2023-12-07T04:46:39;142.50;;;46.50;;
11835;SDS011;5977;51.972;7.640;2023-12-07T04:49:07;143.03;;;46.60;;
11835;SDS011;5977;51.972;7.640;2023-12-07T04:51:35;142.43;;;46.43;;
11835;SDS011;5977;51.972;7.640;2023-12-07T04:54:03;142.57;;;46.40;;
11835;SDS011;5977;51.972;7.640;2023-12-07T04:56:45;142.20;;;46.37;;
11835;SDS011;5977;51.972;7.640;2023-12-07T04:59:13;142.47;;;46.40;;
11835;SDS011;5977;51.972;7.640;2023-12-07T05:01:41;142.07;;;46.33;;
11835;SDS011;5977;51.972;7.640;2023-12-07T05:04:09;142.30;;;46.43;;
11835;SDS011;5977;51.972;7.640;2023-12-07T05:06:37;142.53;;;46.40;;
11835;SDS011;5977;51.972;7.640;2023-12-07T05:09:05;142.73;;;46.47;;
11835;SDS011;5977;51.972;7.640;2023-12-07T05:11:35;142.50;;;46.47;;
11835;SDS011;5977;51.972;7.640;2023-12-07T05:14:05;142.47;;;46.40;;
11835;SDS011;5977;51.972;7.640;2023-12-07T05:16:33;142.63;;;46.50;;
11835;SDS011;5977;51.972;7.640;2023-12-07T05:19:01;142.87;;;46.67;;
11835;SDS011;5977;51.972;7.640;2023-12-07T05:21:29;142.00;;;46.30;;
11835;SDS011;5977;51.972;7.640;2023-12-07T05:23:57;142.30;;;46.47;;
11835;SDS011;5977;51.972;7.640;2023-12-07T05:26:25;142.10;;;46.23;;
11835;SDS011;5977;51.972;7.640;2023-12-07T05:28:53;141.90;;;46.13;;
11835;SDS011;5977;51.972;7.640;2023-12-07T05:31:22;142.87;;;46.53;;
11835;SDS011;5977;51.972;7.640;2023-12-07T05:33:50;142.47;;;46.47;;
11835;SDS011;5977;51.972;7.640;2023-12-07T05:36:18;141.77;;;46.17;;
11835;SDS011;5977;51.972;7.640;2023-12-07T05:38:46;141.77;;;46.20;;
11835;SDS011;5977;51.972;7.640;2023-12-07T05:41:29;142.03;;;46.30;;
11835;SDS011;5977;51.972;7.640;2023-12-07T05:43:57;141.97;;;46.23;;
11835;SDS011;5977;51.972;7.640;2023-12-07T05:46:26;141.93;;;46.40;;
11835;SDS011;5977;51.972;7.640;2023-12-07T05:48:54;141.83;;;46.13;;
11835;SDS011;5977;51.972;7.640;2023-12-07T05:51:23;142.10;;;46.30;;
11835;SDS011;5977;51.972;7.640;2023-12-07T05:53:52;141.60;;;46.13;;
11835;SDS011;5977;51.972;7.640;2023-12-07T05:56:20;141.80;;;46.23;;
11835;SDS011;5977;51.972;7.640;2023-12-07T05:58:48;141.63;;;46.20;;
11835;SDS011;5977;51.972;7.640;2023-12-07T06:01:16;141.90;;;46.30;;
11835;SDS011;5977;51.972;7.640;2023-12-07T06:03:46;141.60;;;46.00;;
11835;SDS011;5977;51.972;7.640;2023-12-07T06:06:14;142.30;;;46.40;;
11835;SDS011;5977;51.972;7.640;2023-12-07T06:08:42;142.63;;;46.47;;
11835;SDS011;5977;51.972;7.640;2023-12-07T06:11:11;142.37;;;46.37;;
11835;SDS011;5977;51.972;7.640;2023-12-07T06:13:38;142.83;;;46.63;;
11835;SDS011;5977;51.972;7.640;2023-12-07T06:16:06;142.77;;;46.60;;
11835;SDS011;5977;51.972;7.640;2023-12-07T06:18:38;143.33;;;46.90;;
11835;SDS011;5977;51.972;7.640;2023-12-07T06:21:07;142.67;;;46.50;;
11835;SDS011;5977;51.972;7.640;2023-12-07T06:23:35;143.13;;;46.70;;
11835;SDS011;5977;51.972;7.640;2023-12-07T06:26:03;143.07;;;46.77;;
11835;SDS011;5977;51.972;7.640;2023-12-07T06:28:31;143.30;;;46.70;;
11835;SDS011;5977;51.972;7.640;2023-12-07T06:31:04;143.13;;;46.70;;
11835;SDS011;5977;51.972;7.640;2023-12-07T06:33:33;143.17;;;46.67;;
11835;SDS011;5977;51.972;7.640;2023-12-07T06:36:01;143.10;;;46.53;;
11835;SDS011;5977;51.972;7.640;2023-12-07T06:38:31;143.17;;;46.57;;
11835;SDS011;5977;51.972;7.640;2023-12-07T06:40:59;142.67;;;46.40;;
11835;SDS011;5977;51.972;7.640;2023-12-07T06:43:27;143.33;;;46.67;;
11835;SDS011;5977;51.972;7.640;2023-12-07T06:45:55;142.37;;;46.33;;
11835;SDS011;5977;51.972;7.640;2023-12-07T06:48:23;143.17;;;46.63;;
11835;SDS011;5977;51.972;7.640;2023-12-07T06:50:51;143.00;;;46.63;;
11835;SDS011;5977;51.972;7.640;2023-12-07T06:53:18;143.07;;;46.57;;
11835;SDS011;5977;51.972;7.640;2023-12-07T06:55:48;143.70;;;47.00;;
11835;SDS011;5977;51.972;7.640;2023-12-07T06:58:15;143.43;;;46.77;;
11835;SDS011;5977;51.972;7.640;2023-12-07T07:00:43;142.87;;;46.53;;
11835;SDS011;5977;51.972;7.640;2023-12-07T07:03:11;143.73;;;46.90;;
11835;SDS011;5977;51.972;7.640;2023-12-07T07:05:39;143.20;;;46.73;;
11835;SDS011;5977;51.972;7.640;2023-12-07T07:08:07;142.83;;;46.57;;
11835;SDS011;5977;51.972;7.640;2023-12-07T07:10:35;143.00;;;46.67;;
11835;SDS011;5977;51.972;7.640;2023-12-07T07:13:04;142.47;;;46.47;;
11835;SDS011;5977;51.972;7.640;2023-12-07T07:15:32;143.03;;;46.73;;
11835;SDS011;5977;51.972;7.640;2023-12-07T07:18:00;143.80;;;46.83;;
11835;SDS011;5977;51.972;7.640;2023-12-07T07:20:29;143.50;;;46.83;;
11835;SDS011;5977;51.972;7.640;2023-12-07T07:22:56;142.70;;;46.47;;
11835;SDS011;5977;51.972;7.640;2023-12-07T07:25:24;143.17;;;46.67;;
11835;SDS011;5977;51.972;7.640;2023-12-07T07:27:52;142.90;;;46.77;;
11835;SDS011;5977;51.972;7.640;2023-12-07T07:30:22;143.63;;;46.87;;
11835;SDS011;5977;51.972;7.640;2023-12-07T07:32:50;142.97;;;46.57;;
11835;SDS011;5977;51.972;7.640;2023-12-07T07:35:18;142.27;;;46.37;;
11835;SDS011;5977;51.972;7.640;2023-12-07T07:37:46;142.87;;;46.60;;
11835;SDS011;5977;51.972;7.640;2023-12-07T07:40:14;142.63;;;46.47;;
11835;SDS011;5977;51.972;7.640;2023-12-07T07:42:43;142.93;;;46.53;;
11835;SDS011;5977;51.972;7.640;2023-12-07T07:45:10;143.00;;;46.67;;
11835;SDS011;5977;51.972;7.640;2023-12-07T07:47:40;143.17;;;46.70;;
11835;SDS011;5977;51.972;7.640;2023-12-07T07:50:08;143.20;;;46.77;;
11835;SDS011;5977;51.972;7.640;2023-12-07T07:52:41;142.83;;;46.60;;
11835;SDS011;5977;51.972;7.640;2023-12-07T07:55:09;143.17;;;46.60;;
11835;SDS011;5977;51.972;7.640;2023-12-07T07:57:38;143.30;;;46.80;;
11835;SDS011;5977;51.972;7.640;2023-12-07T08:00:07;142.53;;;46.37;;
11835;SDS011;5977;51.972;7.640;2023-12-07T08:02:35;142.53;;;46.47;;
11835;SDS011;5977;51.972;7.640;2023-12-07T08:05:05;142.80;;;46.67;;
11835;SDS011;5977;51.972;7.640;2023-12-07T08:07:33;143.40;;;46.80;;
11835;SDS011;5977;51.972;7.640;2023-12-07T08:10:01;142.70;;;46.67;;
11835;SDS011;5977;51.972;7.640;2023-12-07T08:12:30;143.43;;;46.80;;
11835;SDS011;5977;51.972;7.640;2023-12-07T08:14:57;143.63;;;47.00;;
11835;SDS011;5977;51.972;7.640;2023-12-07T08:17:25;143.60;;;46.90;;
11835;SDS011;5977;51.972;7.640;2023-12-07T08:19:54;143.90;;;46.87;;
11835;SDS011;5977;51.972;7.640;2023-12-07T08:22:23;143.67;;;46.80;;
11835;SDS011;5977;51.972;7.640;2023-12-07T08:24:51;144.47;;;47.13;;
11835;SDS011;5977;51.972;7.640;2023-12-07T08:27:33;144.17;;;47.00;;
11835;SDS011;5977;51.972;7.640;2023-12-07T08:30:01;144.97;;;47.40;;
11835;SDS011;5977;51.972;7.640;2023-12-07T08:32:30;144.00;;;47.07;;
11835;SDS011;5977;51.972;7.640;2023-12-07T08:34:58;144.53;;;47.27;;
11835;SDS011;5977;51.972;7.640;2023-12-07T08:37:27;144.33;;;47.03;;
11835;SDS011;5977;51.972;7.640;2023-12-07T08:39:55;144.67;;;47.37;;
11835;SDS011;5977;51.972;7.640;2023-12-07T08:42:23;143.47;;;46.83;;
11835;SDS011;5977;51.972;7.640;2023-12-07T08:44:52;143.87;;;46.90;;
11835;SDS011;5977;51.972;7.640;2023-12-07T08:47:20;143.90;;;46.80;;
11835;SDS011;5977;51.972;7.640;2023-12-07T08:49:49;144.30;;;47.07;;
11835;SDS011;5977;51.972;7.640;2023-12-07T08:52:17;143.57;;;46.87;;
11835;SDS011;5977;51.972;7.640;2023-12-07T08:55:02;143.50;;;46.83;;
11835;SDS011;5977;51.972;7.640;2023-12-07T08:57:31;143.10;;;46.70;;
11835;SDS011;5977;51.972;7.640;2023-12-07T08:59:59;143.73;;;46.87;;
11835;SDS011;5977;51.972;7.640;2023-12-07T09:02:27;143.70;;;46.83;;
11835;SDS011;5977;51.972;7.640;2023-12-07T09:05:10;143.80;;;46.97;;
11835;SDS011;5977;51.972;7.640;2023-12-07T09:07:38;143.33;;;46.70;;
11835;SDS011;5977;51.972;7.640;2023-12-07T09:10:08;143.93;;;46.80;;
11835;SDS011;5977;51.972;7.640;2023-12-07T09:12:37;143.70;;;46.90;;
11835;SDS011;5977;51.972;7.640;2023-12-07T09:15:06;143.30;;;46.83;;
11835;SDS011;5977;51.972;7.640;2023-12-07T09:17:35;143.50;;;46.80;;
11835;SDS011;5977;51.972;7.640;2023-12-07T09:20:04;143.47;;;46.83;;
11835;SDS011;5977;51.972;7.640;2023-12-07T09:22:33;142.80;;;46.47;;
11835;SDS011;5977;51.972;7.640;2023-12-07T09:25:03;143.23;;;46.73;;
11835;SDS011;5977;51.972;7.640;2023-12-07T09:27:35;143.03;;;46.60;;
11835;SDS011;5977;51.972;7.640;2023-12-07T09:30:04;142.63;;;46.40;;
11835;SDS011;5977;51.972;7.640;2023-12-07T09:32:33;143.33;;;46.77;;
11835;SDS011;5977;51.972;7.640;2023-12-07T09:35:04;142.70;;;46.57;;
11835;SDS011;5977;51.972;7.640;2023-12-07T09:37:33;142.70;;;46.47;;
11835;SDS011;5977;51.972;7.640;2023-12-07T09:40:02;142.83;;;46.53;;
11835;SDS011;5977;51.972;7.640;2023-12-07T09:42:32;142.23;;;46.47;;
11835;SDS011;5977;51.972;7.640;2023-12-07T09:45:04;142.33;;;46.43;;
11835;SDS011;5977;51.972;7.640;2023-12-07T09:47:34;140.83;;;45.87;;
11835;SDS011;5977;51.972;7.640;2023-12-07T09:50:04;140.33;;;45.80;;
11835;SDS011;5977;51.972;7.640;2023-12-07T09:52:33;139.90;;;45.60;;
11835;SDS011;5977;51.972;7.640;2023-12-07T09:55:01;138.77;;;45.17;;
11835;SDS011;5977;51.972;7.640;2023-12-07T09:57:30;138.47;;;45.17;;
11835;SDS011;5977;51.972;7.640;2023-12-07T09:59:59;138.00;;;45.00;;
11835;SDS011;5977;51.972;7.640;2023-12-07T10:02:33;137.57;;;44.80;;
11835;SDS011;5977;51.972;7.640;2023-12-07T10:05:04;137.83;;;44.93;;
11835;SDS011;5977;51.972;7.640;2023-12-07T10:07:33;137.87;;;44.83;;
11835;SDS011;5977;51.972;7.640;2023-12-07T10:10:04;137.57;;;44.80;;
11835;SDS011;5977;51.972;7.640;2023-12-07T10:12:33;137.23;;;44.70;;
11835;SDS011;5977;51.972;7.640;2023-12-07T10:15:05;137.40;;;44.90;;
11835;SDS011;5977;51.972;7.640;2023-12-07T10:17:44;136.37;;;44.47;;
11835;SDS011;5977;51.972;7.640;2023-12-07T10:20:15;137.27;;;44.80;;
11835;SDS011;5977;51.972;7.640;2023-12-07T10:22:44;137.10;;;44.80;;
11835;SDS011;5977;51.972;7.640;2023-12-07T10:25:13;136.43;;;44.50;;
11835;SDS011;5977;51.972;7.640;2023-12-07T10:27:42;136.73;;;44.73;;
11835;SDS011;5977;51.972;7.640;2023-12-07T10:30:10;136.73;;;44.70;;
11835;SDS011;5977;51.972;7.640;2023-12-07T10:32:39;136.97;;;44.80;;
11835;SDS011;5977;51.972;7.640;2023-12-07T10:35:08;137.10;;;44.90;;
11835;SDS011;5977;51.972;7.640;2023-12-07T10:37:37;136.40;;;44.67;;
11835;SDS011;5977;51.972;7.640;2023-12-07T10:40:05;136.47;;;44.63;;
11835;SDS011;5977;51.972;7.640;2023-12-07T10:42:34;136.27;;;44.60;;
11835;SDS011;5977;51.972;7.640;2023-12-07T10:45:05;136.63;;;44.73;;
11835;SDS011;5977;51.972;7.640;2023-12-07T10:47:35;136.87;;;44.90;;
11835;SDS011;5977;51.972;7.640;2023-12-07T10:50:05;136.67;;;44.70;;
11835;SDS011;5977;51.972;7.640;2023-12-07T10:52:43;136.70;;;44.70;;
11835;SDS011;5977;51.972;7.640;2023-12-07T10:55:13;136.40;;;44.67;;
11835;SDS011;5977;51.972;7.640;2023-12-07T10:57:46;135.80;;;44.50;;
11835;SDS011;5977;51.972;7.640;2023-12-07T11:00:15;136.23;;;44.67;;
11835;SDS011;5977;51.972;7.640;2023-12-07T11:02:50;136.43;;;44.60;;
11835;SDS011;5977;51.972;7.640;2023-12-07T11:05:19;136.37;;;44.70;;
11835;SDS011;5977;51.972;7.640;2023-12-07T11:07:53;136.17;;;44.60;;
11835;SDS011;5977;51.972;7.640;2023-12-07T11:10:27;137.70;;;45.10;;
11835;SDS011;5977;51.972;7.640;2023-12-07T11:13:00;140.23;;;45.90;;
11835;SDS011;5977;51.972;7.640;2023-12-07T11:15:36;141.60;;;46.17;;
11835;SDS011;5977;51.972;7.640;2023-12-07T11:18:04;143.30;;;46.80;;
11835;SDS011;5977;51.972;7.640;2023-12-07T11:20:39;145.23;;;47.30;;
11835;SDS011;5977;51.972;7.640;2023-12-07T11:23:09;146.17;;;47.77;;
11835;SDS011;5977;51.972;7.640;2023-12-07T11:25:37;146.70;;;47.80;;
11835;SDS011;5977;51.972;7.640;2023-12-07T11:28:06;147.10;;;47.90;;
11835;SDS011;5977;51.972;7.640;2023-12-07T11:30:36;147.67;;;48.23;;
11835;SDS011;5977;51.972;7.640;2023-12-07T11:33:04;147.70;;;48.40;;
11835;SDS011;5977;51.972;7.640;2023-12-07T11:35:33;148.23;;;48.20;;
11835;SDS011;5977;51.972;7.640;2023-12-07T11:38:32;148.37;;;48.47;;
11835;SDS011;5977;51.972;7.640;2023-12-07T11:41:00;148.50;;;48.43;;
11835;SDS011;5977;51.972;7.640;2023-12-07T11:43:31;148.87;;;48.60;;
11835;SDS011;5977;51.972;7.640;2023-12-07T11:46:06;149.13;;;48.77;;
11835;SDS011;5977;51.972;7.640;2023-12-07T11:48:35;148.93;;;48.80;;
11835;SDS011;5977;51.972;7.640;2023-12-07T11:51:04;148.67;;;48.50;;
11835;SDS011;5977;51.972;7.640;2023-12-07T11:57:59;149.00;;;48.67;;
11835;SDS011;5977;51.972;7.640;2023-12-07T12:00:27;148.30;;;48.00;;
11835;SDS011;5977;51.972;7.640;2023-12-07T12:02:56;149.33;;;48.70;;
11835;SDS011;5977;51.972;7.640;2023-12-07T12:05:24;149.87;;;49.00;;
11835;SDS011;5977;51.972;7.640;2023-12-07T12:07:52;149.27;;;48.63;;
11835;SDS011;5977;51.972;7.640;2023-12-07T12:10:20;148.70;;;48.50;;
11835;SDS011;5977;51.972;7.640;2023-12-07T12:12:51;148.97;;;48.63;;
11835;SDS011;5977;51.972;7.640;2023-12-07T12:15:22;149.43;;;48.97;;
11835;SDS011;5977;51.972;7.640;2023-12-07T12:17:50;148.87;;;48.67;;
11835;SDS011;5977;51.972;7.640;2023-12-07T12:20:18;148.10;;;48.20;;
11835;SDS011;5977;51.972;7.640;2023-12-07T12:22:47;148.37;;;48.37;;
11835;SDS011;5977;51.972;7.640;2023-12-07T12:25:15;148.90;;;48.73;;
11835;SDS011;5977;51.972;7.640;2023-12-07T12:27:43;149.17;;;48.73;;
11835;SDS011;5977;51.972;7.640;2023-12-07T12:30:12;149.50;;;48.87;;
11835;SDS011;5977;51.972;7.640;2023-12-07T12:32:44;149.10;;;48.40;;
11835;SDS011;5977;51.972;7.640;2023-12-07T12:35:13;149.50;;;48.70;;
11835;SDS011;5977;51.972;7.640;2023-12-07T12:37:42;150.17;;;49.03;;
11835;SDS011;5977;51.972;7.640;2023-12-07T12:40:10;149.93;;;49.00;;
11835;SDS011;5977;51.972;7.640;2023-12-07T12:42:42;150.10;;;49.03;;
11835;SDS011;5977;51.972;7.640;2023-12-07T12:45:10;149.70;;;48.77;;
11835;SDS011;5977;51.972;7.640;2023-12-07T12:47:39;149.87;;;48.87;;
11835;SDS011;5977;51.972;7.640;2023-12-07T12:50:09;149.67;;;48.70;;
11835;SDS011;5977;51.972;7.640;2023-12-07T12:52:39;150.83;;;49.37;;
11835;SDS011;5977;51.972;7.640;2023-12-07T12:55:08;150.10;;;49.10;;
11835;SDS011;5977;51.972;7.640;2023-12-07T12:57:37;150.30;;;48.97;;
11835;SDS011;5977;51.972;7.640;2023-12-07T13:00:05;151.17;;;49.40;;
11835;SDS011;5977;51.972;7.640;2023-12-07T13:02:34;150.90;;;49.40;;
11835;SDS011;5977;51.972;7.640;2023-12-07T13:05:02;150.37;;;48.97;;
11835;SDS011;5977;51.972;7.640;2023-12-07T13:07:32;150.70;;;49.07;;
11835;SDS011;5977;51.972;7.640;2023-12-07T13:09:59;150.53;;;48.97;;
11835;SDS011;5977;51.972;7.640;2023-12-07T13:12:27;150.60;;;49.23;;
11835;SDS011;5977;51.972;7.640;2023-12-07T13:14:56;150.03;;;48.93;;
11835;SDS011;5977;51.972;7.640;2023-12-07T13:17:25;150.83;;;49.27;;
11835;SDS011;5977;51.972;7.640;2023-12-07T13:20:07;150.47;;;49.10;;
11835;SDS011;5977;51.972;7.640;2023-12-07T13:22:37;150.33;;;48.80;;
11835;SDS011;5977;51.972;7.640;2023-12-07T13:25:06;150.60;;;49.37;;
11835;SDS011;5977;51.972;7.640;2023-12-07T13:27:34;150.63;;;49.07;;
11835;SDS011;5977;51.972;7.640;2023-12-07T13:30:03;151.00;;;49.27;;
11835;SDS011;5977;51.972;7.640;2023-12-07T13:32:33;151.00;;;49.37;;
11835;SDS011;5977;51.972;7.640;2023-12-07T13:35:03;150.70;;;49.17;;
11835;SDS011;5977;51.972;7.640;2023-12-07T13:37:33;150.87;;;49.43;;
11835;SDS011;5977;51.972;7.640;2023-12-07T13:40:02;150.23;;;48.87;;
11835;SDS011;5977;51.972;7.640;2023-12-07T13:42:36;150.97;;;49.30;;
11835;SDS011;5977;51.972;7.640;2023-12-07T13:45:04;150.30;;;49.00;;
11835;SDS011;5977;51.972;7.640;2023-12-07T13:47:34;150.30;;;48.93;;
11835;SDS011;5977;51.972;7.640;2023-12-07T13:50:04;150.47;;;49.20;;
11835;SDS011;5977;51.972;7.640;2023-12-07T13:52:35;150.23;;;49.07;;
11835;SDS011;5977;51.972;7.640;2023-12-07T13:55:03;150.97;;;49.13;;
11835;SDS011;5977;51.972;7.640;2023-12-07T13:57:32;150.97;;;49.30;;
11835;SDS011;5977;51.972;7.640;2023-12-07T13:59:59;150.47;;;49.10;;
11835;SDS011;5977;51.972;7.640;2023-12-07T14:02:30;150.43;;;49.03;;
11835;SDS011;5977;51.972;7.640;2023-12-07T14:04:59;150.50;;;49.03;;
11835;SDS011;5977;51.972;7.640;2023-12-07T14:07:27;150.30;;;48.90;;
11835;SDS011;5977;51.972;7.640;2023-12-07T14:09:57;150.97;;;49.13;;
11835;SDS011;5977;51.972;7.640;2023-12-07T14:12:25;150.57;;;49.07;;
11835;SDS011;5977;51.972;7.640;2023-12-07T14:14:55;150.57;;;48.87;;
11835;SDS011;5977;51.972;7.640;2023-12-07T14:17:24;151.03;;;49.27;;
11835;SDS011;5977;51.972;7.640;2023-12-07T14:20:03;150.97;;;49.20;;
11835;SDS011;5977;51.972;7.640;2023-12-07T14:22:53;150.80;;;49.13;;
11835;SDS011;5977;51.972;7.640;2023-12-07T14:25:22;151.30;;;49.20;;
11835;SDS011;5977;51.972;7.640;2023-12-07T14:27:50;150.90;;;49.07;;
11835;SDS011;5977;51.972;7.640;2023-12-07T14:30:18;151.07;;;49.23;;
11835;SDS011;5977;51.972;7.640;2023-12-07T14:32:47;151.03;;;49.07;;
11835;SDS011;5977;51.972;7.640;2023-12-07T14:35:18;151.10;;;49.13;;
11835;SDS011;5977;51.972;7.640;2023-12-07T14:37:47;150.47;;;48.70;;